Terminal Aerodrome Forecast
Issued by NWS

Home | Current Version | Previous Version | Text Only | Print | Product List | Glossary On
Versions: 1 2 3 4 5 6 7 8 9 10 11 12
000
FTUS45 KMSO 301134
TAFSMN
TAF
KSMN 301134Z 3012/3112 29002KT P6SM BKN250
     FM302200 30011G18KT P6SM BKN250
     FM310300 35009G16KT P6SM SKC
     FM310400 07006KT P6SM SKC
      AMD LTD TO CLD VIS AND WIND=

USA.gov is the U.S. government's official web portal to all federal, state and local government web resources and services.